Time;durP1;ratioP1;P1;durP2;ratioP2;P2;SDS_P1;SDS_P2;PMS_P1;PMS_P2;Temp;Humidity;BMP_temperature;BMP_pressure;BME280_temperature;BME280_humidity;BME280_pressure;Samples;Min_cycle;Max_cycle;Signal;HPM_P1;HPM_P2
2024/01/30 00:01:24;;;;;;;12.90;4.17;;;27.10;99.90;;;;;;5115023;28;20178;-68
2024/01/30 00:03:51;;;;;;;8.53;3.07;;;26.90;99.90;;;;;;5114823;28;20589;-68
2024/01/30 00:06:23;;;;;;;9.70;3.00;;;27.00;99.90;;;;;;5115068;28;20185;-69
2024/01/30 00:12:13;;;;;;;10.60;3.00;;;27.40;99.90;;;;;;5114027;28;20615;-67
2024/01/30 00:14:45;;;;;;;9.77;2.73;;;28.20;99.90;;;;;;5114751;28;20206;-66
2024/01/30 00:17:13;;;;;;;7.10;2.83;;;28.30;99.90;;;;;;5114186;28;20216;-67
2024/01/30 00:19:41;;;;;;;12.77;4.13;;;28.10;99.90;;;;;;5109774;27;20225;-68
2024/01/30 00:22:09;;;;;;;8.23;2.63;;;27.90;99.90;;;;;;5103701;27;20218;-68
2024/01/30 00:24:36;;;;;;;9.63;2.93;;;27.80;99.90;;;;;;5113430;28;20217;-67
2024/01/30 00:27:04;;;;;;;8.97;3.33;;;27.80;99.90;;;;;;5095903;28;20191;-68
2024/01/30 00:29:33;;;;;;;10.13;3.63;;;27.60;99.90;;;;;;5114576;28;20206;-67
2024/01/30 00:32:01;;;;;;;10.53;3.20;;;27.60;99.90;;;;;;5113882;28;20206;-68
2024/01/30 00:34:29;;;;;;;7.63;2.80;;;27.50;99.90;;;;;;5096481;28;20574;-67
2024/01/30 00:36:56;;;;;;;11.33;2.83;;;27.30;99.90;;;;;;5113722;28;20187;-68
2024/01/30 00:39:24;;;;;;;7.13;3.10;;;27.20;99.90;;;;;;5093972;28;20179;-68
2024/01/30 00:41:52;;;;;;;8.83;2.90;;;27.20;99.90;;;;;;5093870;28;20588;-69
2024/01/30 00:44:19;;;;;;;9.03;2.80;;;27.10;99.90;;;;;;5105778;28;20178;-68
2024/01/30 00:46:47;;;;;;;11.87;3.13;;;26.90;99.90;;;;;;5113579;28;20236;-68
2024/01/30 00:49:15;;;;;;;10.33;3.33;;;26.90;99.90;;;;;;5114071;28;20198;-70
2024/01/30 00:51:42;;;;;;;8.73;2.90;;;26.90;99.90;;;;;;5113805;28;20600;-69
2024/01/30 00:54:10;;;;;;;13.67;3.20;;;27.10;99.90;;;;;;5113927;28;20254;-67
2024/01/30 00:56:38;;;;;;;14.00;3.03;;;27.20;99.90;;;;;;5095368;28;20190;-68
2024/01/30 00:59:05;;;;;;;4.70;2.57;;;27.20;99.90;;;;;;5113290;28;20198;-67
2024/01/30 01:01:33;;;;;;;6.47;2.73;;;27.30;99.90;;;;;;5113810;28;20532;-67
2024/01/30 01:04:02;;;;;;;9.23;2.50;;;27.60;99.90;;;;;;5113673;28;20644;-66
2024/01/30 01:06:29;;;;;;;7.50;2.50;;;27.70;99.90;;;;;;5113655;28;20558;-68
2024/01/30 01:08:57;;;;;;;7.97;2.40;;;27.70;99.90;;;;;;5113682;28;20210;-67
2024/01/30 01:11:25;;;;;;;8.03;2.50;;;27.60;99.90;;;;;;5113668;28;20186;-66
2024/01/30 01:13:52;;;;;;;9.17;2.10;;;27.50;99.90;;;;;;5113733;28;20197;-69
2024/01/30 01:16:20;;;;;;;9.93;2.27;;;27.30;99.90;;;;;;5113507;28;20183;-66
2024/01/30 01:18:48;;;;;;;6.33;2.13;;;27.40;99.90;;;;;;5113284;28;20336;-68
2024/01/30 01:21:16;;;;;;;9.13;2.70;;;27.70;99.90;;;;;;5113581;28;20193;-67
2024/01/30 01:23:43;;;;;;;8.23;2.33;;;27.60;99.90;;;;;;5113135;28;20183;-67
2024/01/30 01:26:11;;;;;;;6.73;2.17;;;27.60;99.90;;;;;;5113101;28;20178;-68
2024/01/30 01:28:43;;;;;;;6.73;2.03;;;27.90;99.90;;;;;;5113236;28;20181;-67
2024/01/30 01:31:11;;;;;;;14.83;2.20;;;27.90;99.90;;;;;;5113211;28;20187;-66
2024/01/30 01:33:39;;;;;;;10.40;2.40;;;28.10;99.90;;;;;;5113039;28;20197;-67
2024/01/30 01:36:07;;;;;;;5.83;2.30;;;28.00;99.90;;;;;;5113237;28;20175;-67
2024/01/30 01:38:34;;;;;;;8.33;2.10;;;27.90;99.90;;;;;;5112996;28;20186;-71
2024/01/30 01:41:02;;;;;;;7.97;2.00;;;28.30;99.90;;;;;;5094971;28;20543;-68
2024/01/30 01:43:30;;;;;;;7.60;2.13;;;28.50;99.90;;;;;;5112963;28;20194;-68
2024/01/30 01:45:58;;;;;;;4.97;2.17;;;28.60;99.90;;;;;;5112885;28;20193;-68
2024/01/30 01:48:26;;;;;;;9.00;2.47;;;28.60;99.90;;;;;;5112708;28;20259;-66
2024/01/30 01:50:54;;;;;;;15.40;2.30;;;28.50;99.90;;;;;;5112932;28;20930;-68
2024/01/30 01:53:22;;;;;;;6.80;2.10;;;28.40;99.90;;;;;;5113024;28;20174;-69
2024/01/30 01:55:50;;;;;;;5.93;1.97;;;28.40;99.90;;;;;;5113011;28;20186;-68
2024/01/30 01:58:20;;;;;;;9.03;2.30;;;28.80;99.90;;;;;;5112904;28;20174;-70
2024/01/30 02:00:48;;;;;;;6.50;2.47;;;28.90;99.90;;;;;;5113148;28;20193;-67
2024/01/30 02:03:21;;;;;;;6.03;1.80;;;28.70;99.90;;;;;;5113245;28;20170;-67
2024/01/30 02:05:49;;;;;;;6.10;1.83;;;28.40;99.90;;;;;;5094821;28;20170;-68
2024/01/30 02:08:17;;;;;;;7.83;2.20;;;28.30;99.90;;;;;;5112665;28;20247;-67
2024/01/30 02:10:45;;;;;;;5.47;2.23;;;28.30;99.90;;;;;;5112504;28;20247;-66
2024/01/30 02:13:13;;;;;;;9.93;2.53;;;28.40;99.90;;;;;;5112598;28;20626;-66
2024/01/30 02:15:40;;;;;;;6.00;2.33;;;28.50;99.90;;;;;;5113194;28;20179;-66
2024/01/30 02:18:08;;;;;;;7.00;2.33;;;28.80;99.90;;;;;;5112871;28;20278;-67
2024/01/30 02:20:37;;;;;;;8.63;2.40;;;29.00;99.90;;;;;;5114069;28;20175;-67
2024/01/30 02:23:05;;;;;;;6.23;1.83;;;29.00;99.90;;;;;;5113512;28;20258;-70
2024/01/30 02:25:37;;;;;;;4.23;1.70;;;28.90;99.90;;;;;;5113251;28;20188;-68
2024/01/30 02:28:05;;;;;;;5.60;1.90;;;28.70;99.90;;;;;;5113485;28;20242;-68
2024/01/30 02:30:33;;;;;;;5.03;2.13;;;28.50;99.90;;;;;;5114192;28;20688;-71
2024/01/30 02:33:00;;;;;;;6.57;1.80;;;28.60;99.90;;;;;;5113370;28;20542;-68
2024/01/30 02:35:28;;;;;;;4.67;1.70;;;28.70;99.90;;;;;;5113116;28;20190;-71
2024/01/30 02:37:56;;;;;;;4.33;1.53;;;28.80;99.90;;;;;;5094974;28;20186;-67
2024/01/30 02:40:23;;;;;;;8.43;2.33;;;29.10;99.90;;;;;;5113098;28;20174;-68
2024/01/30 02:42:51;;;;;;;6.10;1.70;;;29.20;99.90;;;;;;5113104;28;20628;-71
2024/01/30 02:45:19;;;;;;;5.70;1.87;;;29.20;99.90;;;;;;5112468;28;20187;-67
2024/01/30 02:47:47;;;;;;;4.07;1.70;;;29.60;99.90;;;;;;5112187;28;20182;-68
2024/01/30 02:50:16;;;;;;;7.07;2.60;;;29.80;99.90;;;;;;5112211;28;20210;-67
2024/01/30 02:52:47;;;;;;;5.55;2.25;;;29.50;99.90;;;;;;5112200;28;20174;-68
2024/01/30 02:55:17;;;;;;;4.43;2.00;;;29.40;99.90;;;;;;5112415;28;20629;-68
2024/01/30 02:57:45;;;;;;;9.23;2.30;;;29.20;99.90;;;;;;5112038;28;20177;-70
2024/01/30 03:00:13;;;;;;;9.83;2.50;;;29.10;99.90;;;;;;5112053;28;20179;-70
2024/01/30 03:02:41;;;;;;;9.57;3.03;;;29.00;99.90;;;;;;5110734;28;20205;-69
2024/01/30 03:05:09;;;;;;;6.40;2.03;;;29.00;99.90;;;;;;5111366;28;20253;-69
2024/01/30 03:07:37;;;;;;;4.33;1.90;;;28.90;99.90;;;;;;5111873;28;20688;-70
2024/01/30 03:10:06;;;;;;;7.23;2.30;;;28.90;99.90;;;;;;5112007;28;20234;-69
2024/01/30 03:12:34;;;;;;;7.83;2.67;;;29.10;99.90;;;;;;5111512;28;20240;-69
2024/01/30 03:15:01;;;;;;;8.03;2.53;;;29.10;99.90;;;;;;5112000;28;20532;-69
2024/01/30 03:17:32;;;;;;;8.38;2.25;;;29.10;99.90;;;;;;5111571;28;20190;-70
2024/01/30 03:20:00;;;;;;;10.27;2.37;;;29.00;99.90;;;;;;5111981;28;20187;-69
2024/01/30 03:22:28;;;;;;;7.80;2.30;;;29.30;99.90;;;;;;5111754;28;20186;-69
2024/01/30 03:24:55;;;;;;;9.73;2.58;;;29.50;99.90;;;;;;5114302;28;20623;-69
2024/01/30 03:27:23;;;;;;;4.85;2.00;;;29.60;99.90;;;;;;5115287;28;20630;-69
2024/01/30 03:29:51;;;;;;;7.57;2.37;;;29.60;99.90;;;;;;5115523;28;20217;-69
2024/01/30 03:32:18;;;;;;;9.07;2.20;;;29.40;99.90;;;;;;5115591;28;20181;-69
2024/01/30 03:34:46;;;;;;;7.40;2.27;;;29.40;99.90;;;;;;5116262;28;20179;-69
2024/01/30 03:37:14;;;;;;;6.20;2.25;;;29.50;99.90;;;;;;5116507;28;20171;-69
2024/01/30 03:39:41;;;;;;;6.50;2.70;;;29.80;99.90;;;;;;5116067;28;20189;-69
2024/01/30 03:42:09;;;;;;;5.88;2.03;;;30.00;99.90;;;;;;5116226;28;20187;-69
2024/01/30 03:44:37;;;;;;;7.00;2.33;;;29.80;99.90;;;;;;5116108;28;20182;-68
2024/01/30 03:47:04;;;;;;;7.25;2.28;;;29.60;99.90;;;;;;5115880;28;20599;-69
2024/01/30 03:49:32;;;;;;;13.13;2.25;;;29.70;99.90;;;;;;5116236;28;20242;-69
2024/01/30 03:52:00;;;;;;;7.68;2.08;;;29.80;99.90;;;;;;5116105;28;20174;-69
2024/01/30 03:54:28;;;;;;;5.20;1.95;;;30.00;99.90;;;;;;5098089;28;20314;-69
2024/01/30 03:56:55;;;;;;;7.18;2.05;;;30.10;99.90;;;;;;5115689;28;20232;-69
2024/01/30 03:59:24;;;;;;;4.47;1.70;;;29.90;99.90;;;;;;5116369;28;20171;-69
2024/01/30 04:01:52;;;;;;;6.05;2.05;;;29.60;99.90;;;;;;5115901;28;20187;-69
2024/01/30 04:04:20;;;;;;;6.43;1.70;;;29.50;99.90;;;;;;5116178;28;20226;-69
2024/01/30 04:06:48;;;;;;;4.15;1.73;;;29.30;99.90;;;;;;5115880;28;20185;-69
2024/01/30 04:09:16;;;;;;;9.00;2.17;;;28.90;99.90;;;;;;5115440;28;20213;-69
2024/01/30 04:11:43;;;;;;;4.97;1.33;;;28.90;99.90;;;;;;5115499;28;20529;-69
2024/01/30 04:14:12;;;;;;;5.80;1.60;;;29.00;99.90;;;;;;5116083;28;20177;-69
2024/01/30 04:16:39;;;;;;;5.45;1.70;;;29.10;99.90;;;;;;5115427;28;20180;-69
2024/01/30 04:19:07;;;;;;;6.53;1.90;;;28.90;99.90;;;;;;5115503;28;20668;-68
2024/01/30 04:21:35;;;;;;;7.13;2.17;;;28.90;99.90;;;;;;5115846;28;20537;-68
2024/01/30 04:24:02;;;;;;;3.97;1.40;;;28.90;99.90;;;;;;5115740;28;20162;-68
2024/01/30 04:26:30;;;;;;;7.03;2.10;;;29.10;99.90;;;;;;5115551;28;20182;-68
2024/01/30 04:28:58;;;;;;;4.10;1.80;;;29.10;99.90;;;;;;5115480;28;20205;-68
2024/01/30 04:31:25;;;;;;;5.67;2.10;;;29.40;99.90;;;;;;5115098;28;20178;-68
2024/01/30 04:33:53;;;;;;;3.67;1.58;;;29.80;99.90;;;;;;5115193;28;20231;-68
2024/01/30 04:36:21;;;;;;;9.57;2.50;;;30.20;99.90;;;;;;5115116;28;20595;-68
2024/01/30 04:38:48;;;;;;;10.90;1.98;;;30.40;99.90;;;;;;5115522;28;20516;-68
2024/01/30 04:41:16;;;;;;;8.05;2.15;;;30.50;99.90;;;;;;5115122;28;20210;-69
2024/01/30 04:43:44;;;;;;;5.28;1.83;;;30.70;99.90;;;;;;5114726;28;20522;-68
2024/01/30 04:46:12;;;;;;;8.90;2.47;;;30.70;99.90;;;;;;5111925;28;20182;-68
2024/01/30 04:48:39;;;;;;;8.55;1.83;;;30.50;99.90;;;;;;5115142;28;20613;-69
2024/01/30 04:51:07;;;;;;;6.45;1.75;;;30.30;99.90;;;;;;5114611;28;20174;-68
2024/01/30 04:53:35;;;;;;;6.43;1.92;;;30.10;99.90;;;;;;5115068;28;20178;-69
2024/01/30 04:56:03;;;;;;;8.07;2.22;;;29.80;99.90;;;;;;5091295;28;20170;-69
2024/01/30 04:58:30;;;;;;;8.98;2.75;;;29.70;99.90;;;;;;5094828;28;20296;-69
2024/01/30 05:00:58;;;;;;;6.95;2.33;;;29.60;99.90;;;;;;5113411;28;20171;-69
2024/01/30 05:03:25;;;;;;;7.15;2.13;;;29.50;99.90;;;;;;5113357;28;20175;-69
2024/01/30 05:05:53;;;;;;;7.80;2.40;;;29.50;99.90;;;;;;5112843;28;20262;-68
2024/01/30 05:08:21;;;;;;;9.33;2.17;;;29.60;99.90;;;;;;5113848;28;20177;-69
2024/01/30 05:10:48;;;;;;;8.37;2.77;;;29.30;99.90;;;;;;5113824;28;20245;-69
2024/01/30 05:13:16;;;;;;;8.13;2.47;;;29.10;99.90;;;;;;5113490;28;20177;-69
2024/01/30 05:15:44;;;;;;;9.53;2.70;;;29.10;99.90;;;;;;5113249;28;20182;-69
2024/01/30 05:18:11;;;;;;;10.55;2.72;;;29.40;99.90;;;;;;5113487;28;20267;-69
2024/01/30 05:20:39;;;;;;;9.60;2.87;;;29.50;99.90;;;;;;5113339;28;20185;-69
2024/01/30 05:23:07;;;;;;;9.15;2.80;;;29.40;99.90;;;;;;5113451;28;20641;-69
2024/01/30 05:25:34;;;;;;;11.80;3.07;;;29.40;99.90;;;;;;5094734;28;20186;-69
2024/01/30 05:28:02;;;;;;;7.47;2.47;;;29.30;99.90;;;;;;5113237;28;20503;-69
2024/01/30 05:30:30;;;;;;;10.73;2.92;;;29.30;99.90;;;;;;5112712;28;20259;-69
2024/01/30 05:32:58;;;;;;;12.03;2.83;;;29.10;99.90;;;;;;5113061;28;20584;-69
2024/01/30 05:35:25;;;;;;;6.60;2.43;;;29.00;99.90;;;;;;5112993;28;20620;-70
2024/01/30 05:37:53;;;;;;;12.20;3.30;;;29.00;99.90;;;;;;5113203;28;20178;-69
2024/01/30 05:40:21;;;;;;;8.60;2.90;;;29.00;99.90;;;;;;5112847;28;20597;-67
2024/01/30 05:42:49;;;;;;;15.67;2.93;;;29.10;99.90;;;;;;5113004;28;20175;-69
2024/01/30 05:45:16;;;;;;;10.03;2.50;;;29.20;99.90;;;;;;5121952;27;20268;-70
2024/01/30 05:47:44;;;;;;;9.80;2.57;;;29.40;99.90;;;;;;5113467;28;20257;-69
2024/01/30 05:50:12;;;;;;;11.37;2.70;;;29.50;99.90;;;;;;5112925;28;20232;-70
2024/01/30 05:52:39;;;;;;;10.00;2.90;;;29.80;99.90;;;;;;5112532;28;20170;-70
2024/01/30 05:55:07;;;;;;;9.45;2.22;;;29.70;99.90;;;;;;5112917;28;20179;-70
2024/01/30 05:57:35;;;;;;;11.95;2.88;;;29.80;99.90;;;;;;5112903;28;20621;-67
2024/01/30 06:00:03;;;;;;;11.75;2.67;;;29.50;99.90;;;;;;5112320;28;20193;-68
2024/01/30 06:02:31;;;;;;;6.90;2.60;;;29.50;99.90;;;;;;5112811;28;20171;-68
2024/01/30 06:05:00;;;;;;;10.70;2.27;;;29.40;99.90;;;;;;5112719;28;20647;-69
2024/01/30 06:07:27;;;;;;;8.80;2.30;;;29.20;99.90;;;;;;5112660;28;20167;-69
2024/01/30 06:09:55;;;;;;;11.83;2.57;;;29.00;99.90;;;;;;5111977;28;20226;-68
2024/01/30 06:12:23;;;;;;;8.37;2.47;;;28.70;99.90;;;;;;5112511;28;20637;-68
2024/01/30 06:14:51;;;;;;;8.77;2.40;;;28.60;99.90;;;;;;5112657;28;20174;-69
2024/01/30 06:17:18;;;;;;;7.07;2.10;;;28.40;99.90;;;;;;5112586;28;20178;-68
2024/01/30 06:19:46;;;;;;;8.03;2.67;;;28.10;99.90;;;;;;5111732;28;20597;-68
2024/01/30 06:22:14;;;;;;;9.80;2.17;;;28.00;99.90;;;;;;5112467;28;20198;-69
2024/01/30 06:24:41;;;;;;;8.33;2.30;;;28.00;99.90;;;;;;5112379;28;20637;-69
2024/01/30 06:27:09;;;;;;;7.50;2.30;;;27.90;99.90;;;;;;5112055;28;20182;-69
2024/01/30 06:29:37;;;;;;;6.50;2.27;;;27.80;99.90;;;;;;5112055;28;20202;-68
2024/01/30 06:32:05;;;;;;;10.00;2.70;;;27.80;99.90;;;;;;5112219;28;20166;-68
2024/01/30 06:34:32;;;;;;;11.60;3.03;;;27.90;99.90;;;;;;5112245;28;20570;-68
2024/01/30 06:37:00;;;;;;;9.27;2.97;;;27.80;99.90;;;;;;5111985;28;20660;-69
2024/01/30 06:39:28;;;;;;;10.27;2.77;;;27.80;99.90;;;;;;5112245;28;20660;-68
2024/01/30 06:41:56;;;;;;;9.03;3.03;;;27.90;99.90;;;;;;5112044;28;20178;-68
2024/01/30 06:44:25;;;;;;;13.20;2.70;;;27.70;99.90;;;;;;5112221;28;20265;-68
2024/01/30 06:46:53;;;;;;;12.83;2.90;;;27.70;99.90;;;;;;5111670;28;20283;-68
2024/01/30 06:49:21;;;;;;;10.17;2.73;;;27.70;99.90;;;;;;5112160;28;20209;-69
2024/01/30 06:51:49;;;;;;;11.97;2.97;;;27.50;99.90;;;;;;5111945;28;20173;-70
2024/01/30 06:54:17;;;;;;;8.43;2.30;;;27.60;99.90;;;;;;5111990;28;20173;-70
2024/01/30 06:56:45;;;;;;;10.03;2.30;;;27.50;99.90;;;;;;5111973;28;20570;-68
2024/01/30 06:59:12;;;;;;;9.70;3.07;;;27.50;99.90;;;;;;5115704;28;20182;-69
2024/01/30 07:01:40;;;;;;;12.30;2.67;;;27.40;99.90;;;;;;5116074;28;20257;-69
2024/01/30 07:04:08;;;;;;;11.20;3.33;;;27.40;99.90;;;;;;5116075;28;20174;-70
2024/01/30 07:06:35;;;;;;;8.87;2.60;;;27.40;99.90;;;;;;5115735;28;20590;-68
2024/01/30 07:09:03;;;;;;;8.60;2.67;;;27.40;99.90;;;;;;5115973;28;20191;-68
2024/01/30 07:11:32;;;;;;;9.47;2.53;;;27.40;99.90;;;;;;5115858;28;20175;-68
2024/01/30 07:14:00;;;;;;;9.17;3.10;;;27.40;99.90;;;;;;5115610;28;20253;-69
2024/01/30 07:16:27;;;;;;;14.90;3.50;;;27.40;99.90;;;;;;5115629;28;20655;-68
2024/01/30 07:18:56;;;;;;;11.73;2.80;;;27.20;99.90;;;;;;5097028;28;20230;-69
2024/01/30 07:21:28;;;;;;;17.23;3.57;;;27.00;99.90;;;;;;5115768;28;20189;-71
2024/01/30 07:23:58;;;;;;;11.53;3.23;;;26.90;99.90;;;;;;5115741;28;20182;-69
2024/01/30 07:26:26;;;;;;;11.37;3.60;;;26.80;99.90;;;;;;5115469;28;20171;-69
2024/01/30 07:28:54;;;;;;;13.93;4.00;;;26.70;99.90;;;;;;5115604;28;20179;-69
2024/01/30 07:31:23;;;;;;;15.27;4.17;;;26.60;99.90;;;;;;5115528;28;20193;-69
2024/01/30 07:33:50;;;;;;;12.97;3.20;;;26.50;99.90;;;;;;5115204;28;20574;-69
2024/01/30 07:36:18;;;;;;;12.30;3.10;;;26.50;99.90;;;;;;5115349;28;20187;-69
2024/01/30 07:38:46;;;;;;;12.57;2.83;;;26.50;99.90;;;;;;5115384;28;20587;-70
2024/01/30 07:41:13;;;;;;;16.63;3.27;;;26.40;99.90;;;;;;5115180;28;20548;-70
2024/01/30 07:43:41;;;;;;;14.70;3.70;;;26.40;99.90;;;;;;5115374;28;20183;-70
2024/01/30 07:46:10;;;;;;;13.73;3.97;;;26.40;99.90;;;;;;5115083;28;20170;-68
2024/01/30 07:48:38;;;;;;;10.50;3.17;;;26.30;99.90;;;;;;5115251;28;20262;-69
2024/01/30 07:51:05;;;;;;;11.87;3.07;;;26.30;99.90;;;;;;5115263;28;20308;-69
2024/01/30 07:53:33;;;;;;;15.30;4.13;;;26.30;99.90;;;;;;5115205;28;20184;-70
2024/01/30 07:56:01;;;;;;;11.73;3.53;;;26.30;99.90;;;;;;5114841;28;20308;-68
2024/01/30 07:58:28;;;;;;;14.33;3.37;;;26.20;99.90;;;;;;5115095;28;20213;-68
2024/01/30 08:00:58;;;;;;;12.17;3.83;;;26.10;99.90;;;;;;5115186;28;20166;-69
2024/01/30 08:03:26;;;;;;;19.93;4.30;;;26.00;99.90;;;;;;5115090;28;20251;-68
2024/01/30 08:05:53;;;;;;;13.57;3.17;;;25.90;99.90;;;;;;5114485;28;20560;-69
2024/01/30 08:08:21;;;;;;;16.50;3.90;;;25.90;99.90;;;;;;5114855;28;20585;-68
2024/01/30 08:10:49;;;;;;;16.33;3.80;;;25.80;99.90;;;;;;5113758;28;20218;-69
2024/01/30 08:13:17;;;;;;;11.33;3.40;;;25.90;99.90;;;;;;5114610;28;20542;-69
2024/01/30 08:15:45;;;;;;;14.13;3.87;;;25.80;99.90;;;;;;5114538;28;20632;-69
2024/01/30 08:18:12;;;;;;;15.00;3.97;;;25.80;99.90;;;;;;5114583;28;20683;-69
2024/01/30 08:20:40;;;;;;;16.37;3.60;;;25.80;99.90;;;;;;5114543;28;20542;-69
2024/01/30 08:23:08;;;;;;;11.10;3.27;;;25.80;99.90;;;;;;5114162;28;20649;-68
2024/01/30 08:25:36;;;;;;;16.20;4.00;;;25.70;99.90;;;;;;5114449;28;20245;-68
2024/01/30 08:28:04;;;;;;;15.13;3.90;;;25.60;99.90;;;;;;5097882;28;20186;-68
2024/01/30 08:30:32;;;;;;;13.87;3.63;;;25.60;99.90;;;;;;5114184;28;20669;-68
2024/01/30 08:33:00;;;;;;;13.27;3.60;;;25.50;99.90;;;;;;5113966;28;20186;-68
2024/01/30 08:35:27;;;;;;;15.93;3.90;;;25.60;99.90;;;;;;5114350;28;20170;-68
2024/01/30 08:37:55;;;;;;;16.90;4.47;;;25.40;99.90;;;;;;5114130;28;20185;-68
2024/01/30 08:40:23;;;;;;;15.90;3.90;;;25.50;99.90;;;;;;5114102;28;20185;-68
2024/01/30 08:42:50;;;;;;;17.20;3.37;;;25.40;99.90;;;;;;5112288;28;20270;-68
2024/01/30 08:45:19;;;;;;;10.87;3.43;;;25.40;99.90;;;;;;5114255;28;20174;-68
2024/01/30 08:47:46;;;;;;;16.07;3.70;;;25.40;99.90;;;;;;5113600;28;20174;-68
2024/01/30 08:50:14;;;;;;;14.60;4.20;;;25.40;99.90;;;;;;5113856;28;20234;-68
2024/01/30 08:52:42;;;;;;;14.30;3.83;;;25.40;99.90;;;;;;5113852;28;20189;-68
2024/01/30 08:55:10;;;;;;;11.93;3.17;;;25.30;99.90;;;;;;5114715;28;20228;-68
2024/01/30 08:57:38;;;;;;;16.67;3.80;;;25.30;99.90;;;;;;5114298;28;20545;-68
2024/01/30 09:00:08;;;;;;;14.13;3.70;;;25.30;99.90;;;;;;5113642;28;20187;-68
2024/01/30 09:02:36;;;;;;;19.90;4.20;;;25.20;99.90;;;;;;5114675;28;20633;-69
2024/01/30 09:05:04;;;;;;;11.67;3.63;;;25.10;99.90;;;;;;5114378;28;20170;-70
2024/01/30 09:07:32;;;;;;;15.50;3.80;;;25.00;99.90;;;;;;5114781;28;20176;-69
2024/01/30 09:09:59;;;;;;;10.67;3.83;;;24.90;99.90;;;;;;5114748;28;20741;-69
2024/01/30 09:12:27;;;;;;;15.57;3.60;;;24.90;99.90;;;;;;5114540;28;20166;-69
2024/01/30 09:14:55;;;;;;;15.37;3.93;;;24.90;99.90;;;;;;5113539;28;20190;-70
2024/01/30 09:17:23;;;;;;;16.30;3.60;;;24.90;99.90;;;;;;5114527;28;20577;-70
2024/01/30 09:19:50;;;;;;;15.60;3.57;;;24.90;99.90;;;;;;5114384;28;20222;-69
2024/01/30 09:22:18;;;;;;;12.93;3.50;;;24.80;99.90;;;;;;5114427;28;20177;-69
2024/01/30 09:24:46;;;;;;;11.30;3.87;;;24.80;99.90;;;;;;5114573;28;20175;-70
2024/01/30 09:27:13;;;;;;;15.80;3.83;;;24.80;99.90;;;;;;5114345;28;20185;-69
2024/01/30 09:29:41;;;;;;;12.63;3.47;;;24.80;99.90;;;;;;5114165;28;20216;-69
2024/01/30 09:32:09;;;;;;;13.63;3.67;;;24.80;99.90;;;;;;5114315;28;20232;-70
2024/01/30 09:34:36;;;;;;;20.27;4.73;;;24.80;99.90;;;;;;5114506;28;20170;-68
2024/01/30 09:37:04;;;;;;;20.53;3.93;;;24.80;99.90;;;;;;5113988;28;20254;-70
2024/01/30 09:39:32;;;;;;;16.73;4.30;;;24.80;99.90;;;;;;5093929;28;20179;-69
2024/01/30 09:42:18;;;;;;;17.50;4.10;;;24.80;99.90;;;;;;5093811;28;20202;-69
2024/01/30 09:44:51;;;;;;;13.80;4.30;;;24.70;99.90;;;;;;5113848;28;20179;-68
2024/01/30 09:47:19;;;;;;;14.53;3.87;;;24.80;99.90;;;;;;5113473;28;20182;-68
2024/01/30 09:49:48;;;;;;;17.77;3.80;;;24.80;99.90;;;;;;5113983;28;20217;-68
2024/01/30 09:52:16;;;;;;;15.63;4.03;;;24.80;99.90;;;;;;5113539;28;20174;-68
2024/01/30 09:54:45;;;;;;;14.30;4.53;;;24.80;99.90;;;;;;5114002;28;20174;-69
2024/01/30 09:57:13;;;;;;;16.53;3.90;;;24.70;99.90;;;;;;5113878;28;20550;-70
2024/01/30 09:59:42;;;;;;;10.57;3.50;;;24.70;99.90;;;;;;5113634;28;20288;-70
2024/01/30 10:02:11;;;;;;;16.87;4.63;;;24.60;99.90;;;;;;5113629;28;20178;-69
2024/01/30 10:04:38;;;;;;;14.03;4.27;;;24.60;99.90;;;;;;5113466;28;20660;-69
2024/01/30 10:07:07;;;;;;;11.87;4.50;;;24.60;99.90;;;;;;5113694;28;20556;-69
2024/01/30 10:09:35;;;;;;;14.33;3.43;;;24.60;99.90;;;;;;5113503;28;20213;-69
2024/01/30 10:12:03;;;;;;;16.00;4.23;;;24.70;99.90;;;;;;5113364;28;20190;-69
2024/01/30 10:14:31;;;;;;;17.97;4.37;;;24.60;99.90;;;;;;5110807;28;20259;-69
2024/01/30 10:16:59;;;;;;;12.93;4.47;;;24.60;99.90;;;;;;5113252;28;20194;-69
2024/01/30 10:19:27;;;;;;;16.73;4.17;;;24.60;99.90;;;;;;5113457;28;20339;-69
2024/01/30 10:21:54;;;;;;;18.33;5.23;;;24.50;99.90;;;;;;5113653;28;20533;-69
2024/01/30 10:24:26;;;;;;;18.10;4.40;;;24.50;99.90;;;;;;5113683;28;20262;-69
2024/01/30 10:26:54;;;;;;;12.77;3.47;;;24.50;99.90;;;;;;5113123;28;20313;-69
2024/01/30 10:29:22;;;;;;;16.77;4.70;;;24.50;99.90;;;;;;5113545;28;20216;-69
2024/01/30 10:32:03;;;;;;;19.93;4.90;;;24.50;99.90;;;;;;5112791;28;20182;-70
2024/01/30 10:34:31;;;;;;;17.37;4.27;;;24.50;99.90;;;;;;5100357;28;20189;-70
2024/01/30 10:37:17;;;;;;;11.93;4.43;;;24.60;99.90;;;;;;5111522;28;20182;-70
2024/01/30 10:39:46;;;;;;;12.47;3.97;;;24.60;99.90;;;;;;5112425;28;20178;-70
2024/01/30 10:42:16;;;;;;;18.53;4.47;;;24.60;99.90;;;;;;5111674;28;20218;-70
2024/01/30 10:45:27;;;;;;;14.90;4.40;;;24.60;99.90;;;;;;5111988;28;20257;-70
2024/01/30 10:47:58;;;;;;;20.40;4.33;;;24.50;99.90;;;;;;5009527;28;20629;-70
2024/01/30 10:50:27;;;;;;;16.00;4.03;;;24.50;99.90;;;;;;5006621;28;20225;-70
2024/01/30 10:52:56;;;;;;;18.40;3.97;;;24.50;99.90;;;;;;5067047;28;20202;-69
2024/01/30 10:55:25;;;;;;;16.80;4.47;;;24.50;99.90;;;;;;5091648;28;20658;-69
2024/01/30 10:57:53;;;;;;;16.03;4.40;;;24.50;99.90;;;;;;5098771;28;20250;-69
2024/01/30 11:00:24;;;;;;;22.77;4.63;;;24.60;99.90;;;;;;5111235;28;20593;-71
2024/01/30 11:02:52;;;;;;;19.10;4.57;;;24.60;99.90;;;;;;5111467;28;20178;-70
2024/01/30 11:05:28;;;;;;;13.93;4.07;;;24.50;99.90;;;;;;5111754;28;20670;-69
2024/01/30 11:07:55;;;;;;;17.70;4.87;;;24.50;99.90;;;;;;5111751;28;20197;-70
2024/01/30 11:10:26;;;;;;;18.37;4.77;;;24.40;99.90;;;;;;5111412;28;20210;-70
2024/01/30 11:12:54;;;;;;;10.00;3.50;;;24.50;99.90;;;;;;5112009;28;20202;-70
2024/01/30 11:15:21;;;;;;;18.83;4.50;;;24.60;99.90;;;;;;5112645;28;20239;-70
2024/01/30 11:17:53;;;;;;;17.47;5.03;;;24.50;99.90;;;;;;5112371;28;20242;-70
2024/01/30 11:20:29;;;;;;;18.70;4.60;;;24.50;99.90;;;;;;5112072;28;20175;-70
2024/01/30 11:22:58;;;;;;;16.10;4.23;;;24.60;99.90;;;;;;5105905;28;20179;-70
2024/01/30 11:25:26;;;;;;;15.40;4.53;;;24.60;99.90;;;;;;5112492;28;20175;-70
2024/01/30 11:27:55;;;;;;;16.87;4.10;;;24.60;99.90;;;;;;5112690;28;20548;-70
2024/01/30 11:30:33;;;;;;;18.33;4.07;;;24.60;99.90;;;;;;5112757;28;20301;-70
2024/01/30 11:33:12;;;;;;;20.00;4.63;;;24.50;99.90;;;;;;5112660;28;20190;-70
2024/01/30 11:35:42;;;;;;;20.87;5.13;;;24.50;99.90;;;;;;5112325;28;20175;-70
2024/01/30 11:38:13;;;;;;;14.83;4.00;;;24.50;99.90;;;;;;5112452;28;20536;-70
2024/01/30 11:40:41;;;;;;;16.33;4.50;;;24.50;99.90;;;;;;5112064;28;20548;-70
2024/01/30 11:43:10;;;;;;;17.80;4.40;;;24.60;99.90;;;;;;5112872;28;20182;-70
2024/01/30 11:45:39;;;;;;;17.33;4.30;;;24.60;99.90;;;;;;5114388;28;20182;-70
2024/01/30 11:48:10;;;;;;;18.10;4.63;;;24.60;99.90;;;;;;5116140;28;20210;-70
2024/01/30 11:50:42;;;;;;;14.27;4.03;;;24.50;99.90;;;;;;5115763;28;20210;-70
2024/01/30 11:53:11;;;;;;;17.03;4.60;;;24.50;99.90;;;;;;5116181;28;20265;-70
2024/01/30 11:55:38;;;;;;;20.00;5.07;;;24.40;99.90;;;;;;5116357;28;20213;-70
2024/01/30 11:58:06;;;;;;;17.27;4.77;;;24.30;99.90;;;;;;5115950;28;20182;-68
2024/01/30 12:00:34;;;;;;;27.03;5.13;;;24.30;99.90;;;;;;5116057;28;20696;-70
2024/01/30 12:03:02;;;;;;;13.63;3.83;;;24.30;99.90;;;;;;5116103;28;20282;-70
2024/01/30 12:05:30;;;;;;;23.00;4.93;;;24.20;99.90;;;;;;5115426;28;20198;-70
2024/01/30 12:08:01;;;;;;;18.43;4.70;;;24.30;99.90;;;;;;5115434;28;20174;-70
2024/01/30 12:10:29;;;;;;;21.77;5.03;;;24.20;99.90;;;;;;5115686;28;20218;-70
2024/01/30 12:12:57;;;;;;;14.10;4.53;;;24.30;99.90;;;;;;5115784;28;20178;-70
2024/01/30 12:15:25;;;;;;;15.87;4.43;;;24.20;99.90;;;;;;5115857;28;20189;-70
2024/01/30 12:17:53;;;;;;;20.00;5.40;;;24.20;99.90;;;;;;5115968;28;20232;-70
2024/01/30 12:20:21;;;;;;;17.03;4.13;;;24.20;99.90;;;;;;5115484;28;20187;-70
2024/01/30 12:22:50;;;;;;;17.13;4.23;;;24.20;99.90;;;;;;5115653;28;20683;-69
2024/01/30 12:25:20;;;;;;;17.63;4.43;;;24.20;99.90;;;;;;5115451;28;20645;-70
2024/01/30 12:27:51;;;;;;;21.73;5.43;;;24.20;99.90;;;;;;5115742;28;20752;-70
2024/01/30 12:30:21;;;;;;;12.80;4.37;;;24.20;99.90;;;;;;5115323;28;20241;-70
2024/01/30 12:32:51;;;;;;;21.60;5.03;;;24.20;99.90;;;;;;5115003;28;20645;-70
2024/01/30 12:35:21;;;;;;;17.00;4.07;;;24.20;99.90;;;;;;5115556;28;20193;-70
2024/01/30 12:37:50;;;;;;;14.63;4.33;;;24.20;99.90;;;;;;5115321;28;20228;-70
2024/01/30 12:40:18;;;;;;;18.40;4.60;;;24.20;99.90;;;;;;5115074;28;20564;-70
2024/01/30 12:42:50;;;;;;;21.10;5.70;;;24.20;99.90;;;;;;5115289;28;20182;-70
2024/01/30 12:45:22;;;;;;;17.10;4.40;;;24.30;99.90;;;;;;5114974;28;20768;-70
2024/01/30 12:47:49;;;;;;;16.53;5.10;;;24.20;99.90;;;;;;5114970;28;20179;-70
2024/01/30 12:50:18;;;;;;;26.67;5.00;;;24.30;99.90;;;;;;5114902;28;20647;-70